sensor_id;sensor_type;location;lat;lon;timestamp;pressure;altitude;pressure_sealevel;temperature;humidity
77871;BME280;67067;46.850;7.578;2023-03-21T00:00:24;95533.94;;;2.49;54.49
77871;BME280;67067;46.850;7.578;2023-03-21T00:01:26;95531.50;;;2.48;54.34
77871;BME280;67067;46.850;7.578;2023-03-21T00:02:28;95534.13;;;2.48;54.32
77871;BME280;67067;46.850;7.578;2023-03-21T00:03:30;95533.50;;;2.46;54.52
77871;BME280;67067;46.850;7.578;2023-03-21T00:04:33;95528.09;;;2.47;54.55
77871;BME280;67067;46.850;7.578;2023-03-21T00:05:51;95527.84;;;2.42;54.88
77871;BME280;67067;46.850;7.578;2023-03-21T00:06:54;95537.50;;;2.42;54.96
77871;BME280;67067;46.850;7.578;2023-03-21T00:07:56;95532.28;;;2.42;54.88
77871;BME280;67067;46.850;7.578;2023-03-21T00:08:57;95541.72;;;2.43;54.80
77871;BME280;67067;46.850;7.578;2023-03-21T00:10:03;95527.84;;;2.42;54.89
77871;BME280;67067;46.850;7.578;2023-03-21T00:11:18;95533.88;;;2.43;54.92
77871;BME280;67067;46.850;7.578;2023-03-21T00:12:20;95532.91;;;2.44;54.91
77871;BME280;67067;46.850;7.578;2023-03-21T00:13:21;95529.47;;;2.43;54.84
77871;BME280;67067;46.850;7.578;2023-03-21T00:14:23;95529.66;;;2.42;54.90
77871;BME280;67067;46.850;7.578;2023-03-21T00:15:26;95526.06;;;2.43;54.95
77871;BME280;67067;46.850;7.578;2023-03-21T00:16:42;95532.28;;;2.42;54.88
77871;BME280;67067;46.850;7.578;2023-03-21T00:17:46;95534.28;;;2.39;55.16
77871;BME280;67067;46.850;7.578;2023-03-21T00:18:52;95524.97;;;2.30;56.26
77871;BME280;67067;46.850;7.578;2023-03-21T00:19:54;95527.22;;;2.33;55.63
77871;BME280;67067;46.850;7.578;2023-03-21T00:20:58;95527.22;;;2.33;55.49
77871;BME280;67067;46.850;7.578;2023-03-21T00:22:20;95524.97;;;2.30;55.99
77871;BME280;67067;46.850;7.578;2023-03-21T00:23:22;95527.59;;;2.30;55.61
77871;BME280;67067;46.850;7.578;2023-03-21T00:24:25;95524.97;;;2.30;55.54
77871;BME280;67067;46.850;7.578;2023-03-21T00:25:27;95522.97;;;2.32;55.69
77871;BME280;67067;46.850;7.578;2023-03-21T00:26:29;95514.94;;;2.34;55.86
77871;BME280;67067;46.850;7.578;2023-03-21T00:27:30;95519.16;;;2.35;55.52
77871;BME280;67067;46.850;7.578;2023-03-21T00:28:55;95515.38;;;2.37;55.33
77871;BME280;67067;46.850;7.578;2023-03-21T00:29:59;95518.41;;;2.41;55.29
77871;BME280;67067;46.850;7.578;2023-03-21T00:31:01;95515.00;;;2.41;55.45
77871;BME280;67067;46.850;7.578;2023-03-21T00:32:03;95518.22;;;2.43;55.24
77871;BME280;67067;46.850;7.578;2023-03-21T00:33:04;95523.22;;;2.44;55.35
77871;BME280;67067;46.850;7.578;2023-03-21T00:34:22;95522.25;;;2.45;55.07
77871;BME280;67067;46.850;7.578;2023-03-21T00:35:45;95519.41;;;2.40;55.21
77871;BME280;67067;46.850;7.578;2023-03-21T00:37:07;95525.63;;;2.39;54.78
77871;BME280;67067;46.850;7.578;2023-03-21T00:38:09;95522.53;;;2.29;55.02
77871;BME280;67067;46.850;7.578;2023-03-21T00:39:11;95520.31;;;2.26;55.04
77871;BME280;67067;46.850;7.578;2023-03-21T00:40:14;95524.94;;;2.23;54.94
77871;BME280;67067;46.850;7.578;2023-03-21T00:41:29;95520.09;;;2.20;54.93
77871;BME280;67067;46.850;7.578;2023-03-21T00:42:42;95519.69;;;2.17;55.03
77871;BME280;67067;46.850;7.578;2023-03-21T00:43:44;95520.69;;;2.16;54.74
77871;BME280;67067;46.850;7.578;2023-03-21T00:44:46;95516.63;;;2.13;54.90
77871;BME280;67067;46.850;7.578;2023-03-21T00:45:51;95509.63;;;2.14;54.83
77871;BME280;67067;46.850;7.578;2023-03-21T00:46:55;95505.19;;;2.14;54.93
77871;BME280;67067;46.850;7.578;2023-03-21T00:48:08;95512.84;;;2.16;55.00
77871;BME280;67067;46.850;7.578;2023-03-21T00:49:10;95510.03;;;2.17;54.77
77871;BME280;67067;46.850;7.578;2023-03-21T00:50:11;95510.84;;;2.18;54.62
77871;BME280;67067;46.850;7.578;2023-03-21T00:51:16;95512.03;;;2.15;54.75
77871;BME280;67067;46.850;7.578;2023-03-21T00:52:21;95502.38;;;2.16;54.98
77871;BME280;67067;46.850;7.578;2023-03-21T00:53:40;95502.38;;;2.16;55.25
77871;BME280;67067;46.850;7.578;2023-03-21T00:54:42;95502.38;;;2.16;55.38
77871;BME280;67067;46.850;7.578;2023-03-21T00:55:43;95505.78;;;2.16;55.24
77871;BME280;67067;46.850;7.578;2023-03-21T00:56:45;95498.78;;;2.17;54.98
77871;BME280;67067;46.850;7.578;2023-03-21T00:57:47;95504.00;;;2.17;54.85
77871;BME280;67067;46.850;7.578;2023-03-21T00:59:01;95496.34;;;2.15;54.91
77871;BME280;67067;46.850;7.578;2023-03-21T01:00:03;95500.16;;;2.13;55.03
77871;BME280;67067;46.850;7.578;2023-03-21T01:01:07;95502.78;;;2.13;54.83
77871;BME280;67067;46.850;7.578;2023-03-21T01:02:10;95503.56;;;2.13;54.79
77871;BME280;67067;46.850;7.578;2023-03-21T01:03:15;95499.34;;;2.12;54.94
77871;BME280;67067;46.850;7.578;2023-03-21T01:04:25;95503.78;;;2.12;54.94
77871;BME280;67067;46.850;7.578;2023-03-21T01:05:28;95504.75;;;2.10;54.72
77871;BME280;67067;46.850;7.578;2023-03-21T01:06:48;95502.50;;;2.07;54.59
77871;BME280;67067;46.850;7.578;2023-03-21T01:07:51;95506.25;;;1.98;54.78
77871;BME280;67067;46.850;7.578;2023-03-21T01:08:53;95500.59;;;1.94;54.80
77871;BME280;67067;46.850;7.578;2023-03-21T01:09:55;95503.59;;;1.91;54.92
77871;BME280;67067;46.850;7.578;2023-03-21T01:11:00;95499.53;;;1.89;54.89
77871;BME280;67067;46.850;7.578;2023-03-21T01:12:02;95502.16;;;1.89;55.01
77871;BME280;67067;46.850;7.578;2023-03-21T01:13:03;95498.75;;;1.88;54.80
77871;BME280;67067;46.850;7.578;2023-03-21T01:14:05;95502.38;;;1.87;55.27
77871;BME280;67067;46.850;7.578;2023-03-21T01:15:24;95498.31;;;1.85;55.00
77871;BME280;67067;46.850;7.578;2023-03-21T01:16:26;95500.94;;;1.85;54.98
77871;BME280;67067;46.850;7.578;2023-03-21T01:17:28;95501.13;;;1.83;55.00
77871;BME280;67067;46.850;7.578;2023-03-21T01:18:30;95491.69;;;1.82;54.90
77871;BME280;67067;46.850;7.578;2023-03-21T01:19:32;95490.84;;;1.81;55.15
77871;BME280;67067;46.850;7.578;2023-03-21T01:20:51;95492.06;;;1.79;55.37
77871;BME280;67067;46.850;7.578;2023-03-21T01:21:54;95496.47;;;1.78;55.00
77871;BME280;67067;46.850;7.578;2023-03-21T01:22:56;95494.84;;;1.77;55.40
77871;BME280;67067;46.850;7.578;2023-03-21T01:23:57;95490.78;;;1.75;55.28
77871;BME280;67067;46.850;7.578;2023-03-21T01:24:59;95492.78;;;1.73;55.39
77871;BME280;67067;46.850;7.578;2023-03-21T01:26:21;95490.19;;;1.73;55.37
77871;BME280;67067;46.850;7.578;2023-03-21T01:27:23;95484.34;;;1.71;55.29
77871;BME280;67067;46.850;7.578;2023-03-21T01:28:25;95488.78;;;1.70;55.18
77871;BME280;67067;46.850;7.578;2023-03-21T01:29:27;95490.38;;;1.71;55.17
77871;BME280;67067;46.850;7.578;2023-03-21T01:30:31;95486.94;;;1.71;55.26
77871;BME280;67067;46.850;7.578;2023-03-21T01:31:41;95484.34;;;1.71;55.31
77871;BME280;67067;46.850;7.578;2023-03-21T01:32:46;95483.72;;;1.69;55.59
77871;BME280;67067;46.850;7.578;2023-03-21T01:33:47;95483.72;;;1.69;55.62
77871;BME280;67067;46.850;7.578;2023-03-21T01:34:50;95487.94;;;1.70;55.67
77871;BME280;67067;46.850;7.578;2023-03-21T01:35:55;95486.16;;;1.70;55.66
77871;BME280;67067;46.850;7.578;2023-03-21T01:37:13;95483.56;;;1.70;55.55
77871;BME280;67067;46.850;7.578;2023-03-21T01:38:20;95478.34;;;1.70;55.63
77871;BME280;67067;46.850;7.578;2023-03-21T01:39:22;95483.97;;;1.74;55.46
77871;BME280;67067;46.850;7.578;2023-03-21T01:40:25;95475.72;;;1.70;55.93
77871;BME280;67067;46.850;7.578;2023-03-21T01:41:47;95474.28;;;1.68;56.00
77871;BME280;67067;46.850;7.578;2023-03-21T01:42:52;95476.50;;;1.71;55.90
77871;BME280;67067;46.850;7.578;2023-03-21T01:43:55;95479.94;;;1.71;55.86
77871;BME280;67067;46.850;7.578;2023-03-21T01:45:05;95480.94;;;1.70;55.97
77871;BME280;67067;46.850;7.578;2023-03-21T01:46:23;95477.13;;;1.73;55.89
77871;BME280;67067;46.850;7.578;2023-03-21T01:47:41;95471.50;;;1.69;55.82
77871;BME280;67067;46.850;7.578;2023-03-21T01:49:17;95473.03;;;1.63;56.32
77871;BME280;67067;46.850;7.578;2023-03-21T01:50:32;95480.22;;;1.55;55.91
77871;BME280;67067;46.850;7.578;2023-03-21T01:52:10;95474.19;;;1.54;55.69
77871;BME280;67067;46.850;7.578;2023-03-21T01:53:30;95477.38;;;1.49;55.76
77871;BME280;67067;46.850;7.578;2023-03-21T01:54:34;95476.91;;;1.46;55.59
77871;BME280;67067;46.850;7.578;2023-03-21T01:55:38;95475.31;;;1.45;55.36
77871;BME280;67067;46.850;7.578;2023-03-21T01:56:55;95472.88;;;1.43;55.50
77871;BME280;67067;46.850;7.578;2023-03-21T01:58:00;95472.63;;;1.38;55.56
77871;BME280;67067;46.850;7.578;2023-03-21T01:59:31;95473.63;;;1.37;55.54
77871;BME280;67067;46.850;7.578;2023-03-21T02:00:46;95472.22;;;1.34;55.70
77871;BME280;67067;46.850;7.578;2023-03-21T02:02:02;95481.19;;;1.32;55.62
77871;BME280;67067;46.850;7.578;2023-03-21T02:03:12;95473.59;;;1.30;55.46
77871;BME280;67067;46.850;7.578;2023-03-21T02:04:54;95467.53;;;1.30;55.33
77871;BME280;67067;46.850;7.578;2023-03-21T02:06:07;95472.59;;;1.31;55.55
77871;BME280;67067;46.850;7.578;2023-03-21T02:07:14;95464.75;;;1.31;55.62
77871;BME280;67067;46.850;7.578;2023-03-21T02:08:24;95463.31;;;1.29;55.59
77871;BME280;67067;46.850;7.578;2023-03-21T02:09:43;95470.53;;;1.27;55.72
77871;BME280;67067;46.850;7.578;2023-03-21T02:10:50;95469.72;;;1.26;55.74
77871;BME280;67067;46.850;7.578;2023-03-21T02:12:06;95469.53;;;1.28;55.69
77871;BME280;67067;46.850;7.578;2023-03-21T02:13:09;95459.09;;;1.28;55.61
77871;BME280;67067;46.850;7.578;2023-03-21T02:14:15;95465.94;;;1.29;55.58
77871;BME280;67067;46.850;7.578;2023-03-21T02:15:34;95465.56;;;1.32;55.86
77871;BME280;67067;46.850;7.578;2023-03-21T02:17:01;95455.75;;;1.34;55.64
77871;BME280;67067;46.850;7.578;2023-03-21T02:18:15;95456.56;;;1.34;55.77
77871;BME280;67067;46.850;7.578;2023-03-21T02:22:25;95453.22;;;1.19;55.33
77871;BME280;67067;46.850;7.578;2023-03-21T02:27:06;95457.28;;;1.06;55.55
77871;BME280;67067;46.850;7.578;2023-03-21T02:30:24;95452.28;;;1.05;55.64
77871;BME280;67067;46.850;7.578;2023-03-21T02:32:28;95450.91;;;1.09;55.68
77871;BME280;67067;46.850;7.578;2023-03-21T02:38:30;95458.44;;;1.19;56.06
77871;BME280;67067;46.850;7.578;2023-03-21T02:39:37;95460.03;;;1.20;55.99
77871;BME280;67067;46.850;7.578;2023-03-21T02:40:52;95453.00;;;1.20;55.83
77871;BME280;67067;46.850;7.578;2023-03-21T02:43:27;95456.44;;;1.21;55.66
77871;BME280;67067;46.850;7.578;2023-03-21T02:44:37;95458.59;;;1.17;55.68
77871;BME280;67067;46.850;7.578;2023-03-21T02:45:47;95466.81;;;1.14;55.77
77871;BME280;67067;46.850;7.578;2023-03-21T02:48:14;95466.47;;;1.02;55.88
77871;BME280;67067;46.850;7.578;2023-03-21T02:50:51;95467.66;;;1.00;55.96
77871;BME280;67067;46.850;7.578;2023-03-21T02:51:53;95471.25;;;0.99;56.20
77871;BME280;67067;46.850;7.578;2023-03-21T02:53:06;95475.47;;;1.00;56.15
77871;BME280;67067;46.850;7.578;2023-03-21T02:54:11;95467.66;;;1.00;55.94
77871;BME280;67067;46.850;7.578;2023-03-21T02:55:34;95468.47;;;1.00;55.87
77871;BME280;67067;46.850;7.578;2023-03-21T02:56:38;95468.47;;;1.00;55.92
77871;BME280;67067;46.850;7.578;2023-03-21T02:57:43;95473.66;;;1.00;55.71
77871;BME280;67067;46.850;7.578;2023-03-21T02:58:46;95467.03;;;0.98;56.02
77871;BME280;67067;46.850;7.578;2023-03-21T02:59:49;95466.22;;;0.97;56.03
77871;BME280;67067;46.850;7.578;2023-03-21T03:01:05;95467.84;;;0.98;56.16
77871;BME280;67067;46.850;7.578;2023-03-21T03:02:19;95465.44;;;0.97;56.24
77871;BME280;67067;46.850;7.578;2023-03-21T03:03:22;95463.19;;;0.93;56.70
77871;BME280;67067;46.850;7.578;2023-03-21T03:04:35;95463.97;;;0.94;56.66
77871;BME280;67067;46.850;7.578;2023-03-21T03:05:56;95462.94;;;0.88;56.92
77871;BME280;67067;46.850;7.578;2023-03-21T03:07:23;95462.41;;;0.78;57.68
77871;BME280;67067;46.850;7.578;2023-03-21T03:15:56;95475.91;;;1.03;57.98
77871;BME280;67067;46.850;7.578;2023-03-21T03:17:15;95471.69;;;1.02;57.87
77871;BME280;67067;46.850;7.578;2023-03-21T03:21:58;95465.44;;;0.97;56.68
77871;BME280;67067;46.850;7.578;2023-03-21T03:23:11;95466.41;;;0.96;56.69
77871;BME280;67067;46.850;7.578;2023-03-21T03:24:32;95462.19;;;0.95;56.63
77871;BME280;67067;46.850;7.578;2023-03-21T03:25:36;95467.41;;;0.95;56.62
77871;BME280;67067;46.850;7.578;2023-03-21T03:26:50;95462.38;;;0.93;56.72
77871;BME280;67067;46.850;7.578;2023-03-21T03:27:56;95465.19;;;0.91;56.51
77871;BME280;67067;46.850;7.578;2023-03-21T03:29:00;95460.59;;;0.93;56.52
77871;BME280;67067;46.850;7.578;2023-03-21T03:30:04;95461.94;;;0.89;56.47
77871;BME280;67067;46.850;7.578;2023-03-21T03:31:08;95461.69;;;0.84;56.34
77871;BME280;67067;46.850;7.578;2023-03-21T03:32:18;95464.66;;;0.81;56.49
77871;BME280;67067;46.850;7.578;2023-03-21T03:33:21;95462.06;;;0.81;56.56
77871;BME280;67067;46.850;7.578;2023-03-21T03:34:25;95458.47;;;0.82;56.60
77871;BME280;67067;46.850;7.578;2023-03-21T03:35:30;95462.06;;;0.81;56.57
77871;BME280;67067;46.850;7.578;2023-03-21T03:36:32;95457.19;;;0.78;56.50
77871;BME280;67067;46.850;7.578;2023-03-21T03:37:44;95458.53;;;0.74;56.58
77871;BME280;67067;46.850;7.578;2023-03-21T03:38:48;95457.94;;;0.72;56.54
77871;BME280;67067;46.850;7.578;2023-03-21T03:40:11;95456.94;;;0.73;56.66
77871;BME280;67067;46.850;7.578;2023-03-21T03:41:26;95462.16;;;0.73;56.55
77871;BME280;67067;46.850;7.578;2023-03-21T03:42:35;95464.75;;;0.73;56.53
77871;BME280;67067;46.850;7.578;2023-03-21T03:43:57;95460.16;;;0.75;56.51
77871;BME280;67067;46.850;7.578;2023-03-21T03:45:03;95459.38;;;0.74;56.43
77871;BME280;67067;46.850;7.578;2023-03-21T03:46:10;95463.75;;;0.74;56.36
77871;BME280;67067;46.850;7.578;2023-03-21T03:47:20;95459.38;;;0.74;56.53
77871;BME280;67067;46.850;7.578;2023-03-21T03:48:41;95461.59;;;0.77;56.37
77871;BME280;67067;46.850;7.578;2023-03-21T03:49:49;95464.59;;;0.74;56.32
77871;BME280;67067;46.850;7.578;2023-03-21T03:50:55;95458.13;;;0.70;56.47
77871;BME280;67067;46.850;7.578;2023-03-21T03:52:16;95459.91;;;0.70;56.56
77871;BME280;67067;46.850;7.578;2023-03-21T03:53:27;95460.72;;;0.70;56.38
77871;BME280;67067;46.850;7.578;2023-03-21T03:54:32;95457.94;;;0.72;56.38
77871;BME280;67067;46.850;7.578;2023-03-21T03:55:37;95456.94;;;0.73;56.38
77871;BME280;67067;46.850;7.578;2023-03-21T03:56:44;95456.94;;;0.73;56.24
77871;BME280;67067;46.850;7.578;2023-03-21T03:57:47;95465.38;;;0.75;56.32
77871;BME280;67067;46.850;7.578;2023-03-21T03:58:51;95458.53;;;0.74;56.42
77871;BME280;67067;46.850;7.578;2023-03-21T03:59:59;95463.75;;;0.74;56.29
77871;BME280;67067;46.850;7.578;2023-03-21T04:01:18;95454.94;;;0.75;56.37
77871;BME280;67067;46.850;7.578;2023-03-21T04:02:22;95462.97;;;0.73;56.26
77871;BME280;67067;46.850;7.578;2023-03-21T04:03:27;95457.94;;;0.72;56.18
77871;BME280;67067;46.850;7.578;2023-03-21T04:04:39;95450.09;;;0.72;56.31
77871;BME280;67067;46.850;7.578;2023-03-21T04:05:42;95451.28;;;0.69;56.30
77871;BME280;67067;46.850;7.578;2023-03-21T04:06:47;95447.88;;;0.69;56.30
77871;BME280;67067;46.850;7.578;2023-03-21T04:07:55;95453.69;;;0.71;56.13
77871;BME280;67067;46.850;7.578;2023-03-21T04:09:09;95454.69;;;0.70;56.15
77871;BME280;67067;46.850;7.578;2023-03-21T04:10:24;95455.31;;;0.72;56.12
77871;BME280;67067;46.850;7.578;2023-03-21T04:11:26;95452.91;;;0.70;56.17
77871;BME280;67067;46.850;7.578;2023-03-21T04:12:30;95458.91;;;0.71;56.37
77871;BME280;67067;46.850;7.578;2023-03-21T04:13:50;95458.91;;;0.71;56.31
77871;BME280;67067;46.850;7.578;2023-03-21T04:14:56;95453.53;;;0.72;56.46
77871;BME280;67067;46.850;7.578;2023-03-21T04:16:12;95459.38;;;0.74;56.70
77871;BME280;67067;46.850;7.578;2023-03-21T04:17:16;95451.97;;;0.78;56.87
77871;BME280;67067;46.850;7.578;2023-03-21T04:18:21;95450.81;;;0.81;56.79
77871;BME280;67067;46.850;7.578;2023-03-21T04:19:24;95450.03;;;0.80;57.34
77871;BME280;67067;46.850;7.578;2023-03-21T04:20:25;95447.59;;;0.78;57.38
77871;BME280;67067;46.850;7.578;2023-03-21T04:21:43;95445.16;;;0.77;57.60
77871;BME280;67067;46.850;7.578;2023-03-21T04:22:51;95445.97;;;0.77;57.72
77871;BME280;67067;46.850;7.578;2023-03-21T04:23:54;95442.22;;;0.80;57.50
77871;BME280;67067;46.850;7.578;2023-03-21T04:24:56;95445.44;;;0.82;57.36
77871;BME280;67067;46.850;7.578;2023-03-21T04:26:02;95442.47;;;0.85;57.31
77871;BME280;67067;46.850;7.578;2023-03-21T04:27:18;95440.28;;;0.89;56.98
77871;BME280;67067;46.850;7.578;2023-03-21T04:28:37;95446.13;;;0.76;58.24
77871;BME280;67067;46.850;7.578;2023-03-21T04:29:58;95439.31;;;0.75;57.95
77871;BME280;67067;46.850;7.578;2023-03-21T04:31:28;95438.59;;;0.81;57.78
77871;BME280;67067;46.850;7.578;2023-03-21T04:32:40;95439.41;;;0.82;57.85
77871;BME280;67067;46.850;7.578;2023-03-21T04:33:47;95447.22;;;0.82;57.78
77871;BME280;67067;46.850;7.578;2023-03-21T04:34:50;95441.91;;;0.75;58.56
77871;BME280;67067;46.850;7.578;2023-03-21T04:35:55;95447.41;;;0.80;58.33
77871;BME280;67067;46.850;7.578;2023-03-21T04:37:02;95439.41;;;0.82;57.96
77871;BME280;67067;46.850;7.578;2023-03-21T04:38:13;95441.31;;;0.73;58.81
77871;BME280;67067;46.850;7.578;2023-03-21T04:39:17;95443.13;;;0.72;59.01
77871;BME280;67067;46.850;7.578;2023-03-21T04:40:21;95443.38;;;0.77;58.66
77871;BME280;67067;46.850;7.578;2023-03-21T04:41:29;95449.66;;;0.83;58.22
77871;BME280;67067;46.850;7.578;2023-03-21T04:42:31;95443.09;;;0.87;58.01
77871;BME280;67067;46.850;7.578;2023-03-21T04:43:33;95441.09;;;0.89;58.16
77871;BME280;67067;46.850;7.578;2023-03-21T04:44:37;95441.50;;;0.93;57.96
77871;BME280;67067;46.850;7.578;2023-03-21T04:45:39;95441.50;;;0.93;58.11
77871;BME280;67067;46.850;7.578;2023-03-21T04:46:42;95445.31;;;0.90;58.55
77871;BME280;67067;46.850;7.578;2023-03-21T04:47:45;95441.22;;;0.81;58.91
77871;BME280;67067;46.850;7.578;2023-03-21T04:48:49;95438.25;;;0.84;58.64
77871;BME280;67067;46.850;7.578;2023-03-21T04:49:51;95434.72;;;0.77;58.93
77871;BME280;67067;46.850;7.578;2023-03-21T04:50:53;95438.06;;;0.71;59.03
77871;BME280;67067;46.850;7.578;2023-03-21T04:51:55;95437.91;;;0.72;59.11
77871;BME280;67067;46.850;7.578;2023-03-21T04:52:57;95443.28;;;0.71;58.99
77871;BME280;67067;46.850;7.578;2023-03-21T04:53:58;95437.91;;;0.72;58.88
77871;BME280;67067;46.850;7.578;2023-03-21T04:55:00;95436.81;;;0.67;58.97
77871;BME280;67067;46.850;7.578;2023-03-21T04:56:02;95439.06;;;0.70;58.91
77871;BME280;67067;46.850;7.578;2023-03-21T04:57:04;95435.91;;;0.74;58.86
77871;BME280;67067;46.850;7.578;2023-03-21T04:58:06;95433.47;;;0.73;58.74
77871;BME280;67067;46.850;7.578;2023-03-21T04:59:11;95433.09;;;0.76;58.88
77871;BME280;67067;46.850;7.578;2023-03-21T05:00:13;95437.16;;;0.78;58.70
77871;BME280;67067;46.850;7.578;2023-03-21T05:01:15;95444.81;;;0.80;58.72
77871;BME280;67067;46.850;7.578;2023-03-21T05:02:21;95443.81;;;0.81;58.87
77871;BME280;67067;46.850;7.578;2023-03-21T05:03:23;95440.47;;;0.87;58.50
77871;BME280;67067;46.850;7.578;2023-03-21T05:04:25;95438.50;;;0.89;58.38
77871;BME280;67067;46.850;7.578;2023-03-21T05:05:29;95434.53;;;0.93;58.22
77871;BME280;67067;46.850;7.578;2023-03-21T05:06:32;95434.16;;;0.97;58.18
77871;BME280;67067;46.850;7.578;2023-03-21T05:07:33;95431.53;;;0.97;58.28
77871;BME280;67067;46.850;7.578;2023-03-21T05:08:35;95435.56;;;0.99;58.22
77871;BME280;67067;46.850;7.578;2023-03-21T05:09:37;95436.00;;;1.03;58.06
77871;BME280;67067;46.850;7.578;2023-03-21T05:10:39;95430.59;;;1.04;57.90
77871;BME280;67067;46.850;7.578;2023-03-21T05:11:41;95437.06;;;1.08;57.72
77871;BME280;67067;46.850;7.578;2023-03-21T05:12:45;95432.44;;;1.11;57.73
77871;BME280;67067;46.850;7.578;2023-03-21T05:13:47;95435.06;;;1.11;57.87
77871;BME280;67067;46.850;7.578;2023-03-21T05:14:49;95435.88;;;1.11;57.41
77871;BME280;67067;46.850;7.578;2023-03-21T05:15:51;95434.06;;;1.12;57.37
77871;BME280;67067;46.850;7.578;2023-03-21T05:16:53;95438.03;;;1.07;57.16
77871;BME280;67067;46.850;7.578;2023-03-21T05:17:57;95430.78;;;1.03;57.07
77871;BME280;67067;46.850;7.578;2023-03-21T05:19:24;95426.75;;;1.00;56.74
77871;BME280;67067;46.850;7.578;2023-03-21T05:20:26;95435.75;;;0.98;56.64
77871;BME280;67067;46.850;7.578;2023-03-21T05:21:29;95430.72;;;0.96;56.64
77871;BME280;67067;46.850;7.578;2023-03-21T05:22:34;95436.25;;;0.86;56.27
77871;BME280;67067;46.850;7.578;2023-03-21T05:23:44;95429.78;;;0.82;56.56
77871;BME280;67067;46.850;7.578;2023-03-21T05:24:54;95433.09;;;0.76;56.46
77871;BME280;67067;46.850;7.578;2023-03-21T05:26:16;95439.44;;;0.67;56.35
77871;BME280;67067;46.850;7.578;2023-03-21T05:27:29;95434.78;;;0.62;56.45
77871;BME280;67067;46.850;7.578;2023-03-21T05:28:43;95436.94;;;0.58;56.52
77871;BME280;67067;46.850;7.578;2023-03-21T05:29:45;95442.50;;;0.55;56.59
77871;BME280;67067;46.850;7.578;2023-03-21T05:32:39;95438.28;;;0.54;56.60
77871;BME280;67067;46.850;7.578;2023-03-21T05:33:44;95439.28;;;0.53;56.60
77871;BME280;67067;46.850;7.578;2023-03-21T05:34:49;95436.69;;;0.53;56.60
77871;BME280;67067;46.850;7.578;2023-03-21T05:35:51;95437.50;;;0.54;56.48
77871;BME280;67067;46.850;7.578;2023-03-21T05:36:53;95440.53;;;0.57;56.42
77871;BME280;67067;46.850;7.578;2023-03-21T05:37:57;95440.28;;;0.52;56.38
77871;BME280;67067;46.850;7.578;2023-03-21T05:39:03;95437.66;;;0.52;56.42
77871;BME280;67067;46.850;7.578;2023-03-21T05:40:09;95441.25;;;0.51;56.47
77871;BME280;67067;46.850;7.578;2023-03-21T05:41:16;95439.28;;;0.53;56.48
77871;BME280;67067;46.850;7.578;2023-03-21T05:42:20;95441.09;;;0.53;56.55
77871;BME280;67067;46.850;7.578;2023-03-21T05:43:22;95443.50;;;0.54;56.45
77871;BME280;67067;46.850;7.578;2023-03-21T05:44:24;95442.50;;;0.55;56.38
77871;BME280;67067;46.850;7.578;2023-03-21T05:45:28;95444.94;;;0.57;56.54
77871;BME280;67067;46.850;7.578;2023-03-21T05:46:30;95445.56;;;0.59;56.60
77871;BME280;67067;46.850;7.578;2023-03-21T05:47:32;95444.38;;;0.61;56.48
77871;BME280;67067;46.850;7.578;2023-03-21T05:48:35;95443.38;;;0.62;56.63
77871;BME280;67067;46.850;7.578;2023-03-21T05:49:47;95447.25;;;0.67;56.48
77871;BME280;67067;46.850;7.578;2023-03-21T05:50:50;95443.66;;;0.68;56.50
77871;BME280;67067;46.850;7.578;2023-03-21T05:51:54;95440.69;;;0.71;56.67
77871;BME280;67067;46.850;7.578;2023-03-21T05:52:57;95445.72;;;0.72;56.60
77871;BME280;67067;46.850;7.578;2023-03-21T05:53:59;95441.13;;;0.74;56.73
77871;BME280;67067;46.850;7.578;2023-03-21T05:55:00;95445.81;;;0.79;56.74
77871;BME280;67067;46.850;7.578;2023-03-21T05:56:02;95449.81;;;0.82;56.63
77871;BME280;67067;46.850;7.578;2023-03-21T05:57:14;95439.84;;;0.85;56.81
77871;BME280;67067;46.850;7.578;2023-03-21T05:58:38;95445.50;;;0.89;56.39
77871;BME280;67067;46.850;7.578;2023-03-21T05:59:40;95437.88;;;0.87;56.55
77871;BME280;67067;46.850;7.578;2023-03-21T06:00:42;95439.47;;;0.88;56.55
77871;BME280;67067;46.850;7.578;2023-03-21T06:02:00;95437.03;;;0.87;56.45
77871;BME280;67067;46.850;7.578;2023-03-21T06:03:01;95451.31;;;0.91;56.62
77871;BME280;67067;46.850;7.578;2023-03-21T06:04:22;95443.13;;;0.94;56.46
77871;BME280;67067;46.850;7.578;2023-03-21T06:05:23;95450.78;;;0.96;56.55
77871;BME280;67067;46.850;7.578;2023-03-21T06:06:25;95448.34;;;0.94;56.49
77871;BME280;67067;46.850;7.578;2023-03-21T06:07:29;95443.13;;;0.94;56.51
77871;BME280;67067;46.850;7.578;2023-03-21T06:08:31;95447.34;;;0.95;56.49
77871;BME280;67067;46.850;7.578;2023-03-21T06:09:33;95439.97;;;0.99;56.60
77871;BME280;67067;46.850;7.578;2023-03-21T06:10:37;95447.44;;;1.02;56.46
77871;BME280;67067;46.850;7.578;2023-03-21T06:11:39;95443.00;;;1.02;56.42
77871;BME280;67067;46.850;7.578;2023-03-21T06:13:05;95449.59;;;0.98;56.16
77871;BME280;67067;46.850;7.578;2023-03-21T06:14:07;95449.22;;;1.01;56.39
77871;BME280;67067;46.850;7.578;2023-03-21T06:15:09;95443.38;;;0.99;56.41
77871;BME280;67067;46.850;7.578;2023-03-21T06:16:31;95446.97;;;0.98;56.19
77871;BME280;67067;46.850;7.578;2023-03-21T06:17:33;95454.19;;;0.96;56.45
77871;BME280;67067;46.850;7.578;2023-03-21T06:18:39;95450.22;;;1.00;56.44
77871;BME280;67067;46.850;7.578;2023-03-21T06:20:07;95450.03;;;1.02;56.37
77871;BME280;67067;46.850;7.578;2023-03-21T06:21:23;95449.28;;;1.08;56.49
77871;BME280;67067;46.850;7.578;2023-03-21T06:22:27;95454.94;;;1.12;56.44
77871;BME280;67067;46.850;7.578;2023-03-21T06:23:28;95456.38;;;1.14;56.18
77871;BME280;67067;46.850;7.578;2023-03-21T06:24:30;95460.22;;;1.18;56.13
77871;BME280;67067;46.850;7.578;2023-03-21T06:25:33;95456.25;;;1.22;56.25
77871;BME280;67067;46.850;7.578;2023-03-21T06:26:35;95453.50;;;1.31;56.20
77871;BME280;67067;46.850;7.578;2023-03-21T06:27:36;95453.34;;;1.32;56.17
77871;BME280;67067;46.850;7.578;2023-03-21T06:28:40;95455.97;;;1.39;56.13
77871;BME280;67067;46.850;7.578;2023-03-21T06:29:42;95450.03;;;1.45;56.09
77871;BME280;67067;46.850;7.578;2023-03-21T06:30:43;95454.50;;;1.51;56.10
77871;BME280;67067;46.850;7.578;2023-03-21T06:31:52;95456.16;;;1.59;55.95
77871;BME280;67067;46.850;7.578;2023-03-21T06:32:54;95449.38;;;1.65;55.77
77871;BME280;67067;46.850;7.578;2023-03-21T06:33:56;95453.63;;;1.73;55.87